sensor_id;sensor_type;location;lat;lon;timestamp;P1;durP1;ratioP1;P2;durP2;ratioP2
9547;SDS011;4812;51.992;8.648;2022-11-06T00:00:53;20.20;;;18.37;;
9547;SDS011;4812;51.992;8.648;2022-11-06T00:03:21;20.57;;;18.73;;
9547;SDS011;4812;51.992;8.648;2022-11-06T00:05:49;19.93;;;18.07;;
9547;SDS011;4812;51.992;8.648;2022-11-06T00:08:35;19.10;;;17.70;;
9547;SDS011;4812;51.992;8.648;2022-11-06T00:11:07;20.43;;;18.50;;
9547;SDS011;4812;51.992;8.648;2022-11-06T00:13:37;20.60;;;19.00;;
9547;SDS011;4812;51.992;8.648;2022-11-06T00:16:05;20.10;;;18.50;;
9547;SDS011;4812;51.992;8.648;2022-11-06T00:18:34;20.20;;;18.40;;
9547;SDS011;4812;51.992;8.648;2022-11-06T00:21:06;20.27;;;18.63;;
9547;SDS011;4812;51.992;8.648;2022-11-06T00:23:34;20.10;;;18.57;;
9547;SDS011;4812;51.992;8.648;2022-11-06T00:26:03;20.30;;;18.50;;
9547;SDS011;4812;51.992;8.648;2022-11-06T00:28:32;19.63;;;17.90;;
9547;SDS011;4812;51.992;8.648;2022-11-06T00:31:02;19.80;;;18.17;;
9547;SDS011;4812;51.992;8.648;2022-11-06T00:33:30;19.77;;;17.93;;
9547;SDS011;4812;51.992;8.648;2022-11-06T00:35:57;19.53;;;17.83;;
9547;SDS011;4812;51.992;8.648;2022-11-06T00:38:24;20.23;;;18.43;;
9547;SDS011;4812;51.992;8.648;2022-11-06T00:40:52;19.23;;;17.73;;
9547;SDS011;4812;51.992;8.648;2022-11-06T00:43:19;20.20;;;18.13;;
9547;SDS011;4812;51.992;8.648;2022-11-06T00:45:46;20.47;;;18.57;;
9547;SDS011;4812;51.992;8.648;2022-11-06T00:48:15;18.97;;;17.40;;
9547;SDS011;4812;51.992;8.648;2022-11-06T00:50:42;19.70;;;18.10;;
9547;SDS011;4812;51.992;8.648;2022-11-06T00:53:10;20.77;;;18.40;;
9547;SDS011;4812;51.992;8.648;2022-11-06T00:55:38;19.67;;;17.97;;
9547;SDS011;4812;51.992;8.648;2022-11-06T00:58:09;20.20;;;18.60;;
9547;SDS011;4812;51.992;8.648;2022-11-06T01:00:37;21.20;;;19.47;;
9547;SDS011;4812;51.992;8.648;2022-11-06T01:03:04;21.87;;;19.90;;
9547;SDS011;4812;51.992;8.648;2022-11-06T01:05:33;20.43;;;18.73;;
9547;SDS011;4812;51.992;8.648;2022-11-06T01:08:01;20.53;;;18.93;;
9547;SDS011;4812;51.992;8.648;2022-11-06T01:10:28;21.20;;;19.43;;
9547;SDS011;4812;51.992;8.648;2022-11-06T01:12:55;21.40;;;19.60;;
9547;SDS011;4812;51.992;8.648;2022-11-06T01:15:23;21.77;;;19.90;;
9547;SDS011;4812;51.992;8.648;2022-11-06T01:17:50;22.63;;;20.60;;
9547;SDS011;4812;51.992;8.648;2022-11-06T01:20:17;21.57;;;19.57;;
9547;SDS011;4812;51.992;8.648;2022-11-06T01:22:46;21.37;;;19.50;;
9547;SDS011;4812;51.992;8.648;2022-11-06T01:25:13;21.93;;;20.13;;
9547;SDS011;4812;51.992;8.648;2022-11-06T01:27:41;21.90;;;20.03;;
9547;SDS011;4812;51.992;8.648;2022-11-06T01:30:08;21.70;;;19.80;;
9547;SDS011;4812;51.992;8.648;2022-11-06T01:32:37;20.40;;;18.83;;
9547;SDS011;4812;51.992;8.648;2022-11-06T01:35:04;20.87;;;19.27;;
9547;SDS011;4812;51.992;8.648;2022-11-06T01:37:32;20.13;;;18.50;;
9547;SDS011;4812;51.992;8.648;2022-11-06T01:40:00;20.13;;;18.43;;
9547;SDS011;4812;51.992;8.648;2022-11-06T01:42:28;19.70;;;18.10;;
9547;SDS011;4812;51.992;8.648;2022-11-06T01:47:50;19.43;;;17.83;;
9547;SDS011;4812;51.992;8.648;2022-11-06T01:50:17;19.60;;;17.87;;
9547;SDS011;4812;51.992;8.648;2022-11-06T01:52:45;19.67;;;17.87;;
9547;SDS011;4812;51.992;8.648;2022-11-06T01:55:17;21.70;;;18.90;;
9547;SDS011;4812;51.992;8.648;2022-11-06T01:57:50;20.90;;;19.03;;
9547;SDS011;4812;51.992;8.648;2022-11-06T02:00:17;19.73;;;17.93;;
9547;SDS011;4812;51.992;8.648;2022-11-06T02:02:46;19.27;;;17.70;;
9547;SDS011;4812;51.992;8.648;2022-11-06T02:05:13;20.00;;;18.30;;
9547;SDS011;4812;51.992;8.648;2022-11-06T02:07:41;20.03;;;18.00;;
9547;SDS011;4812;51.992;8.648;2022-11-06T02:10:08;19.63;;;17.83;;
9547;SDS011;4812;51.992;8.648;2022-11-06T02:12:44;20.23;;;18.23;;
9547;SDS011;4812;51.992;8.648;2022-11-06T02:15:18;19.73;;;17.70;;
9547;SDS011;4812;51.992;8.648;2022-11-06T02:17:56;19.67;;;17.80;;
9547;SDS011;4812;51.992;8.648;2022-11-06T02:20:31;18.37;;;16.87;;
9547;SDS011;4812;51.992;8.648;2022-11-06T02:23:05;19.73;;;17.47;;
9547;SDS011;4812;51.992;8.648;2022-11-06T02:25:48;18.10;;;16.70;;
9547;SDS011;4812;51.992;8.648;2022-11-06T02:28:20;18.17;;;16.77;;
9547;SDS011;4812;51.992;8.648;2022-11-06T02:30:50;19.40;;;17.10;;
9547;SDS011;4812;51.992;8.648;2022-11-06T02:33:21;17.80;;;16.33;;
9547;SDS011;4812;51.992;8.648;2022-11-06T02:35:55;18.30;;;16.80;;
9547;SDS011;4812;51.992;8.648;2022-11-06T02:38:25;17.73;;;16.07;;
9547;SDS011;4812;51.992;8.648;2022-11-06T02:40:55;18.50;;;16.50;;
9547;SDS011;4812;51.992;8.648;2022-11-06T02:43:28;17.50;;;15.93;;
9547;SDS011;4812;51.992;8.648;2022-11-06T02:45:58;18.30;;;16.80;;
9547;SDS011;4812;51.992;8.648;2022-11-06T02:48:30;18.63;;;16.90;;
9547;SDS011;4812;51.992;8.648;2022-11-06T02:51:00;17.70;;;16.37;;
9547;SDS011;4812;51.992;8.648;2022-11-06T02:53:29;17.90;;;16.57;;
9547;SDS011;4812;51.992;8.648;2022-11-06T02:55:58;17.90;;;16.60;;
9547;SDS011;4812;51.992;8.648;2022-11-06T02:58:31;17.93;;;16.33;;
9547;SDS011;4812;51.992;8.648;2022-11-06T03:01:05;18.73;;;17.20;;
9547;SDS011;4812;51.992;8.648;2022-11-06T03:03:38;18.30;;;17.00;;
9547;SDS011;4812;51.992;8.648;2022-11-06T03:06:08;18.30;;;16.93;;
9547;SDS011;4812;51.992;8.648;2022-11-06T03:08:38;18.53;;;17.13;;
9547;SDS011;4812;51.992;8.648;2022-11-06T03:11:09;19.10;;;17.23;;
9547;SDS011;4812;51.992;8.648;2022-11-06T03:13:43;17.33;;;15.63;;
9547;SDS011;4812;51.992;8.648;2022-11-06T03:16:18;18.23;;;16.77;;
9547;SDS011;4812;51.992;8.648;2022-11-06T03:18:51;18.07;;;16.77;;
9547;SDS011;4812;51.992;8.648;2022-11-06T03:21:22;17.60;;;16.33;;
9547;SDS011;4812;51.992;8.648;2022-11-06T03:23:53;17.80;;;16.50;;
9547;SDS011;4812;51.992;8.648;2022-11-06T03:26:23;18.63;;;17.40;;
9547;SDS011;4812;51.992;8.648;2022-11-06T03:28:55;18.30;;;17.00;;
9547;SDS011;4812;51.992;8.648;2022-11-06T03:31:25;19.03;;;17.27;;
9547;SDS011;4812;51.992;8.648;2022-11-06T03:33:54;17.33;;;16.03;;
9547;SDS011;4812;51.992;8.648;2022-11-06T03:36:25;18.97;;;17.40;;
9547;SDS011;4812;51.992;8.648;2022-11-06T03:38:57;18.17;;;16.77;;
9547;SDS011;4812;51.992;8.648;2022-11-06T03:41:27;16.73;;;15.50;;
9547;SDS011;4812;51.992;8.648;2022-11-06T03:43:59;17.00;;;15.57;;
9547;SDS011;4812;51.992;8.648;2022-11-06T03:46:27;16.67;;;15.47;;
9547;SDS011;4812;51.992;8.648;2022-11-06T03:48:56;17.43;;;15.83;;
9547;SDS011;4812;51.992;8.648;2022-11-06T03:51:29;16.33;;;15.00;;
9547;SDS011;4812;51.992;8.648;2022-11-06T03:53:59;17.60;;;15.80;;
9547;SDS011;4812;51.992;8.648;2022-11-06T03:56:31;16.53;;;15.17;;
9547;SDS011;4812;51.992;8.648;2022-11-06T03:59:04;17.07;;;15.60;;
9547;SDS011;4812;51.992;8.648;2022-11-06T04:01:34;17.10;;;15.63;;
9547;SDS011;4812;51.992;8.648;2022-11-06T04:04:04;17.07;;;15.67;;
9547;SDS011;4812;51.992;8.648;2022-11-06T04:06:34;15.77;;;14.67;;
9547;SDS011;4812;51.992;8.648;2022-11-06T04:09:04;15.53;;;14.43;;
9547;SDS011;4812;51.992;8.648;2022-11-06T04:11:50;16.93;;;15.37;;
9547;SDS011;4812;51.992;8.648;2022-11-06T04:14:37;15.93;;;14.63;;
9547;SDS011;4812;51.992;8.648;2022-11-06T04:17:07;15.70;;;14.60;;
9547;SDS011;4812;51.992;8.648;2022-11-06T04:19:36;16.10;;;14.70;;
9547;SDS011;4812;51.992;8.648;2022-11-06T04:22:17;15.80;;;14.57;;
9547;SDS011;4812;51.992;8.648;2022-11-06T04:24:53;16.97;;;15.63;;
9547;SDS011;4812;51.992;8.648;2022-11-06T04:27:48;15.80;;;14.50;;
9547;SDS011;4812;51.992;8.648;2022-11-06T04:30:23;15.60;;;14.40;;
9547;SDS011;4812;51.992;8.648;2022-11-06T04:32:57;16.10;;;14.77;;
9547;SDS011;4812;51.992;8.648;2022-11-06T04:35:34;15.90;;;14.80;;
9547;SDS011;4812;51.992;8.648;2022-11-06T04:38:07;15.30;;;14.00;;
9547;SDS011;4812;51.992;8.648;2022-11-06T04:40:42;15.13;;;14.13;;
9547;SDS011;4812;51.992;8.648;2022-11-06T04:43:13;16.27;;;14.87;;
9547;SDS011;4812;51.992;8.648;2022-11-06T04:45:46;15.90;;;14.77;;
9547;SDS011;4812;51.992;8.648;2022-11-06T04:48:15;15.77;;;14.60;;
9547;SDS011;4812;51.992;8.648;2022-11-06T04:50:44;17.20;;;15.73;;
9547;SDS011;4812;51.992;8.648;2022-11-06T04:53:13;17.23;;;15.67;;
9547;SDS011;4812;51.992;8.648;2022-11-06T04:55:45;17.00;;;15.80;;
9547;SDS011;4812;51.992;8.648;2022-11-06T04:58:14;17.63;;;16.27;;
9547;SDS011;4812;51.992;8.648;2022-11-06T05:00:43;16.97;;;15.57;;
9547;SDS011;4812;51.992;8.648;2022-11-06T05:03:14;17.37;;;16.20;;
9547;SDS011;4812;51.992;8.648;2022-11-06T05:05:42;16.97;;;15.73;;
9547;SDS011;4812;51.992;8.648;2022-11-06T05:08:11;17.83;;;15.93;;
9547;SDS011;4812;51.992;8.648;2022-11-06T05:10:40;17.10;;;15.77;;
9547;SDS011;4812;51.992;8.648;2022-11-06T05:13:08;16.47;;;15.27;;
9547;SDS011;4812;51.992;8.648;2022-11-06T05:15:36;18.10;;;16.73;;
9547;SDS011;4812;51.992;8.648;2022-11-06T05:18:05;16.93;;;15.33;;
9547;SDS011;4812;51.992;8.648;2022-11-06T05:20:33;16.53;;;15.33;;
9547;SDS011;4812;51.992;8.648;2022-11-06T05:23:01;16.43;;;15.33;;
9547;SDS011;4812;51.992;8.648;2022-11-06T05:25:28;16.77;;;15.30;;
9547;SDS011;4812;51.992;8.648;2022-11-06T05:27:57;16.63;;;15.10;;
9547;SDS011;4812;51.992;8.648;2022-11-06T05:30:25;15.63;;;14.60;;
9547;SDS011;4812;51.992;8.648;2022-11-06T05:32:52;16.00;;;14.87;;
9547;SDS011;4812;51.992;8.648;2022-11-06T05:35:21;14.97;;;13.97;;
9547;SDS011;4812;51.992;8.648;2022-11-06T05:37:48;16.63;;;15.17;;
9547;SDS011;4812;51.992;8.648;2022-11-06T05:40:16;15.93;;;14.80;;
9547;SDS011;4812;51.992;8.648;2022-11-06T05:42:44;16.47;;;14.83;;
9547;SDS011;4812;51.992;8.648;2022-11-06T05:45:11;16.03;;;15.00;;
9547;SDS011;4812;51.992;8.648;2022-11-06T05:47:39;15.83;;;14.50;;
9547;SDS011;4812;51.992;8.648;2022-11-06T05:50:07;15.40;;;14.30;;
9547;SDS011;4812;51.992;8.648;2022-11-06T05:52:37;15.87;;;14.57;;
9547;SDS011;4812;51.992;8.648;2022-11-06T05:55:05;16.97;;;15.67;;
9547;SDS011;4812;51.992;8.648;2022-11-06T05:57:39;15.33;;;14.13;;
9547;SDS011;4812;51.992;8.648;2022-11-06T06:00:07;15.83;;;14.37;;
9547;SDS011;4812;51.992;8.648;2022-11-06T06:02:38;14.83;;;13.73;;
9547;SDS011;4812;51.992;8.648;2022-11-06T06:05:07;15.47;;;14.17;;
9547;SDS011;4812;51.992;8.648;2022-11-06T06:07:34;14.93;;;13.83;;
9547;SDS011;4812;51.992;8.648;2022-11-06T06:10:04;14.60;;;13.50;;
9547;SDS011;4812;51.992;8.648;2022-11-06T06:12:32;14.67;;;13.50;;
9547;SDS011;4812;51.992;8.648;2022-11-06T06:14:59;14.87;;;13.67;;
9547;SDS011;4812;51.992;8.648;2022-11-06T06:17:26;14.73;;;13.60;;
9547;SDS011;4812;51.992;8.648;2022-11-06T06:19:54;14.57;;;13.37;;
9547;SDS011;4812;51.992;8.648;2022-11-06T06:22:21;15.47;;;14.17;;
9547;SDS011;4812;51.992;8.648;2022-11-06T06:24:50;14.70;;;13.50;;
9547;SDS011;4812;51.992;8.648;2022-11-06T06:27:17;14.20;;;13.13;;
9547;SDS011;4812;51.992;8.648;2022-11-06T06:29:45;14.73;;;13.43;;
9547;SDS011;4812;51.992;8.648;2022-11-06T06:32:12;14.90;;;13.40;;
9547;SDS011;4812;51.992;8.648;2022-11-06T06:34:39;14.77;;;13.37;;
9547;SDS011;4812;51.992;8.648;2022-11-06T06:37:07;14.77;;;13.50;;
9547;SDS011;4812;51.992;8.648;2022-11-06T06:39:34;14.43;;;13.43;;
9547;SDS011;4812;51.992;8.648;2022-11-06T06:42:03;14.83;;;13.53;;
9547;SDS011;4812;51.992;8.648;2022-11-06T06:44:31;14.93;;;13.80;;
9547;SDS011;4812;51.992;8.648;2022-11-06T06:46:59;13.37;;;12.47;;
9547;SDS011;4812;51.992;8.648;2022-11-06T06:49:26;13.90;;;12.80;;
9547;SDS011;4812;51.992;8.648;2022-11-06T06:51:53;13.90;;;13.00;;
9547;SDS011;4812;51.992;8.648;2022-11-06T06:54:21;14.07;;;12.80;;
9547;SDS011;4812;51.992;8.648;2022-11-06T06:56:48;15.33;;;14.13;;
9547;SDS011;4812;51.992;8.648;2022-11-06T06:59:17;14.77;;;13.70;;
9547;SDS011;4812;51.992;8.648;2022-11-06T07:01:44;15.57;;;14.47;;
9547;SDS011;4812;51.992;8.648;2022-11-06T07:04:12;15.70;;;14.60;;
9547;SDS011;4812;51.992;8.648;2022-11-06T07:06:39;16.37;;;15.07;;
9547;SDS011;4812;51.992;8.648;2022-11-06T07:09:06;16.23;;;15.20;;
9547;SDS011;4812;51.992;8.648;2022-11-06T07:11:34;17.10;;;15.63;;
9547;SDS011;4812;51.992;8.648;2022-11-06T07:14:01;17.37;;;15.97;;
9547;SDS011;4812;51.992;8.648;2022-11-06T07:16:30;17.80;;;16.50;;
9547;SDS011;4812;51.992;8.648;2022-11-06T07:18:58;18.23;;;16.80;;
9547;SDS011;4812;51.992;8.648;2022-11-06T07:21:25;18.80;;;17.10;;
9547;SDS011;4812;51.992;8.648;2022-11-06T07:23:53;18.13;;;16.73;;
9547;SDS011;4812;51.992;8.648;2022-11-06T07:26:20;17.93;;;16.50;;
9547;SDS011;4812;51.992;8.648;2022-11-06T07:28:47;18.13;;;16.70;;
9547;SDS011;4812;51.992;8.648;2022-11-06T07:31:15;18.77;;;17.17;;
9547;SDS011;4812;51.992;8.648;2022-11-06T07:33:44;18.53;;;17.13;;
9547;SDS011;4812;51.992;8.648;2022-11-06T07:36:11;19.70;;;18.00;;
9547;SDS011;4812;51.992;8.648;2022-11-06T07:38:40;18.80;;;17.23;;
9547;SDS011;4812;51.992;8.648;2022-11-06T07:41:08;18.60;;;17.20;;
9547;SDS011;4812;51.992;8.648;2022-11-06T07:43:37;19.30;;;17.50;;
9547;SDS011;4812;51.992;8.648;2022-11-06T07:46:06;18.60;;;17.17;;
9547;SDS011;4812;51.992;8.648;2022-11-06T07:48:34;19.83;;;18.27;;
9547;SDS011;4812;51.992;8.648;2022-11-06T07:51:04;19.43;;;18.03;;
9547;SDS011;4812;51.992;8.648;2022-11-06T07:53:32;19.13;;;17.73;;
9547;SDS011;4812;51.992;8.648;2022-11-06T07:56:00;19.77;;;18.33;;
9547;SDS011;4812;51.992;8.648;2022-11-06T07:58:28;20.00;;;18.30;;
9547;SDS011;4812;51.992;8.648;2022-11-06T08:00:56;19.73;;;18.13;;
9547;SDS011;4812;51.992;8.648;2022-11-06T08:03:24;19.80;;;18.30;;
9547;SDS011;4812;51.992;8.648;2022-11-06T08:05:54;20.43;;;18.73;;
9547;SDS011;4812;51.992;8.648;2022-11-06T08:08:23;19.73;;;18.23;;
9547;SDS011;4812;51.992;8.648;2022-11-06T08:10:51;19.50;;;18.10;;
9547;SDS011;4812;51.992;8.648;2022-11-06T08:13:18;19.30;;;17.90;;
9547;SDS011;4812;51.992;8.648;2022-11-06T08:15:46;19.80;;;18.40;;
9547;SDS011;4812;51.992;8.648;2022-11-06T08:18:13;20.30;;;18.70;;
9547;SDS011;4812;51.992;8.648;2022-11-06T08:20:41;20.63;;;19.03;;
9547;SDS011;4812;51.992;8.648;2022-11-06T08:23:09;20.67;;;19.07;;
9547;SDS011;4812;51.992;8.648;2022-11-06T08:25:39;20.30;;;18.80;;
9547;SDS011;4812;51.992;8.648;2022-11-06T08:28:08;20.40;;;18.77;;
9547;SDS011;4812;51.992;8.648;2022-11-06T08:30:36;20.67;;;18.97;;
9547;SDS011;4812;51.992;8.648;2022-11-06T08:33:04;19.93;;;18.53;;
9547;SDS011;4812;51.992;8.648;2022-11-06T08:35:33;20.60;;;18.67;;
9547;SDS011;4812;51.992;8.648;2022-11-06T08:38:00;21.03;;;19.27;;
9547;SDS011;4812;51.992;8.648;2022-11-06T08:40:28;20.67;;;19.17;;
9547;SDS011;4812;51.992;8.648;2022-11-06T08:43:01;20.47;;;18.93;;
9547;SDS011;4812;51.992;8.648;2022-11-06T08:45:30;20.93;;;19.30;;
9547;SDS011;4812;51.992;8.648;2022-11-06T08:47:59;20.37;;;18.87;;
9547;SDS011;4812;51.992;8.648;2022-11-06T08:50:27;20.13;;;18.73;;
9547;SDS011;4812;51.992;8.648;2022-11-06T08:52:55;20.93;;;19.07;;
9547;SDS011;4812;51.992;8.648;2022-11-06T08:55:22;20.10;;;18.40;;
9547;SDS011;4812;51.992;8.648;2022-11-06T08:57:49;19.83;;;18.33;;
9547;SDS011;4812;51.992;8.648;2022-11-06T09:00:21;19.90;;;18.27;;
9547;SDS011;4812;51.992;8.648;2022-11-06T09:02:49;20.30;;;18.70;;
9547;SDS011;4812;51.992;8.648;2022-11-06T09:05:16;20.03;;;18.43;;
9547;SDS011;4812;51.992;8.648;2022-11-06T09:07:44;20.10;;;18.70;;
9547;SDS011;4812;51.992;8.648;2022-11-06T09:10:15;21.20;;;19.30;;
9547;SDS011;4812;51.992;8.648;2022-11-06T09:12:43;20.50;;;18.80;;
9547;SDS011;4812;51.992;8.648;2022-11-06T09:15:12;20.87;;;18.73;;
9547;SDS011;4812;51.992;8.648;2022-11-06T09:17:42;21.00;;;19.40;;
9547;SDS011;4812;51.992;8.648;2022-11-06T09:20:10;22.27;;;20.63;;
9547;SDS011;4812;51.992;8.648;2022-11-06T09:22:39;22.93;;;21.10;;
9547;SDS011;4812;51.992;8.648;2022-11-06T09:25:07;20.00;;;18.23;;
9547;SDS011;4812;51.992;8.648;2022-11-06T09:27:40;20.70;;;19.10;;
9547;SDS011;4812;51.992;8.648;2022-11-06T09:30:09;20.00;;;18.30;;
9547;SDS011;4812;51.992;8.648;2022-11-06T09:32:43;19.73;;;18.13;;
9547;SDS011;4812;51.992;8.648;2022-11-06T09:35:12;20.03;;;18.43;;
9547;SDS011;4812;51.992;8.648;2022-11-06T09:37:40;19.73;;;18.23;;
9547;SDS011;4812;51.992;8.648;2022-11-06T09:40:14;20.50;;;18.70;;
9547;SDS011;4812;51.992;8.648;2022-11-06T09:42:49;21.17;;;19.27;;
9547;SDS011;4812;51.992;8.648;2022-11-06T09:45:22;21.00;;;19.10;;
9547;SDS011;4812;51.992;8.648;2022-11-06T09:47:53;20.40;;;18.60;;
9547;SDS011;4812;51.992;8.648;2022-11-06T09:50:24;20.80;;;19.07;;
9547;SDS011;4812;51.992;8.648;2022-11-06T09:52:55;20.70;;;19.10;;
9547;SDS011;4812;51.992;8.648;2022-11-06T09:55:32;20.33;;;18.73;;
9547;SDS011;4812;51.992;8.648;2022-11-06T09:58:07;20.20;;;18.80;;
9547;SDS011;4812;51.992;8.648;2022-11-06T10:00:38;21.00;;;19.37;;
9547;SDS011;4812;51.992;8.648;2022-11-06T10:03:11;20.20;;;18.67;;
9547;SDS011;4812;51.992;8.648;2022-11-06T10:05:40;20.73;;;19.13;;
9547;SDS011;4812;51.992;8.648;2022-11-06T10:08:11;20.47;;;18.67;;
9547;SDS011;4812;51.992;8.648;2022-11-06T10:10:44;20.13;;;18.63;;
9547;SDS011;4812;51.992;8.648;2022-11-06T10:13:22;20.47;;;18.77;;
9547;SDS011;4812;51.992;8.648;2022-11-06T10:15:57;20.00;;;18.40;;
9547;SDS011;4812;51.992;8.648;2022-11-06T10:18:33;20.73;;;19.10;;
9547;SDS011;4812;51.992;8.648;2022-11-06T10:21:08;20.83;;;18.93;;
9547;SDS011;4812;51.992;8.648;2022-11-06T10:23:40;20.30;;;18.60;;
9547;SDS011;4812;51.992;8.648;2022-11-06T10:26:11;20.03;;;18.40;;
9547;SDS011;4812;51.992;8.648;2022-11-06T10:28:44;19.83;;;18.30;;
9547;SDS011;4812;51.992;8.648;2022-11-06T10:31:27;19.87;;;18.47;;
9547;SDS011;4812;51.992;8.648;2022-11-06T10:34:00;20.03;;;18.63;;
9547;SDS011;4812;51.992;8.648;2022-11-06T10:36:30;21.23;;;19.47;;
9547;SDS011;4812;51.992;8.648;2022-11-06T10:39:02;20.23;;;18.83;;
9547;SDS011;4812;51.992;8.648;2022-11-06T10:41:31;20.37;;;18.80;;
9547;SDS011;4812;51.992;8.648;2022-11-06T10:44:01;20.47;;;18.83;;
9547;SDS011;4812;51.992;8.648;2022-11-06T10:46:32;21.37;;;19.57;;
9547;SDS011;4812;51.992;8.648;2022-11-06T10:49:03;20.27;;;18.67;;
9547;SDS011;4812;51.992;8.648;2022-11-06T10:51:43;21.10;;;19.23;;
9547;SDS011;4812;51.992;8.648;2022-11-06T10:54:22;20.77;;;18.97;;
9547;SDS011;4812;51.992;8.648;2022-11-06T10:56:58;21.03;;;19.13;;
9547;SDS011;4812;51.992;8.648;2022-11-06T10:59:32;20.73;;;19.17;;
9547;SDS011;4812;51.992;8.648;2022-11-06T11:02:00;21.43;;;19.73;;
9547;SDS011;4812;51.992;8.648;2022-11-06T11:04:31;21.07;;;19.37;;
9547;SDS011;4812;51.992;8.648;2022-11-06T11:07:01;20.83;;;19.13;;
9547;SDS011;4812;51.992;8.648;2022-11-06T11:09:36;22.00;;;20.07;;
9547;SDS011;4812;51.992;8.648;2022-11-06T11:12:08;20.90;;;19.17;;
9547;SDS011;4812;51.992;8.648;2022-11-06T11:14:47;20.93;;;19.03;;
9547;SDS011;4812;51.992;8.648;2022-11-06T11:17:36;20.83;;;19.00;;
9547;SDS011;4812;51.992;8.648;2022-11-06T11:23:09;20.37;;;18.70;;
9547;SDS011;4812;51.992;8.648;2022-11-06T11:25:41;20.60;;;19.07;;
9547;SDS011;4812;51.992;8.648;2022-11-06T11:28:20;19.80;;;18.30;;
9547;SDS011;4812;51.992;8.648;2022-11-06T11:30:52;21.00;;;19.17;;
9547;SDS011;4812;51.992;8.648;2022-11-06T11:33:24;20.77;;;19.07;;
9547;SDS011;4812;51.992;8.648;2022-11-06T11:35:52;20.00;;;18.50;;
9547;SDS011;4812;51.992;8.648;2022-11-06T11:38:21;20.67;;;18.97;;
9547;SDS011;4812;51.992;8.648;2022-11-06T11:40:51;20.97;;;19.10;;
9547;SDS011;4812;51.992;8.648;2022-11-06T11:43:22;20.80;;;19.20;;
9547;SDS011;4812;51.992;8.648;2022-11-06T11:46:01;21.07;;;19.37;;
9547;SDS011;4812;51.992;8.648;2022-11-06T11:48:40;21.33;;;19.50;;
9547;SDS011;4812;51.992;8.648;2022-11-06T11:51:17;20.83;;;19.03;;
9547;SDS011;4812;51.992;8.648;2022-11-06T11:53:51;22.27;;;20.27;;
9547;SDS011;4812;51.992;8.648;2022-11-06T11:56:21;21.43;;;19.50;;
9547;SDS011;4812;51.992;8.648;2022-11-06T11:59:11;20.93;;;19.30;;
9547;SDS011;4812;51.992;8.648;2022-11-06T12:01:41;20.90;;;19.10;;
9547;SDS011;4812;51.992;8.648;2022-11-06T12:04:16;20.20;;;18.70;;
9547;SDS011;4812;51.992;8.648;2022-11-06T12:06:48;21.27;;;19.47;;
9547;SDS011;4812;51.992;8.648;2022-11-06T12:09:18;21.30;;;19.40;;
9547;SDS011;4812;51.992;8.648;2022-11-06T12:11:57;22.10;;;20.20;;
9547;SDS011;4812;51.992;8.648;2022-11-06T12:14:27;20.90;;;19.07;;
9547;SDS011;4812;51.992;8.648;2022-11-06T12:17:01;21.37;;;19.60;;
9547;SDS011;4812;51.992;8.648;2022-11-06T12:19:31;21.43;;;19.63;;
9547;SDS011;4812;51.992;8.648;2022-11-06T12:22:02;20.90;;;19.10;;
9547;SDS011;4812;51.992;8.648;2022-11-06T12:24:36;21.00;;;19.40;;
9547;SDS011;4812;51.992;8.648;2022-11-06T12:27:10;20.83;;;19.23;;
9547;SDS011;4812;51.992;8.648;2022-11-06T12:29:43;21.30;;;19.60;;
9547;SDS011;4812;51.992;8.648;2022-11-06T12:32:15;21.33;;;19.60;;
9547;SDS011;4812;51.992;8.648;2022-11-06T12:34:51;22.27;;;20.40;;
9547;SDS011;4812;51.992;8.648;2022-11-06T12:37:23;21.37;;;19.30;;
9547;SDS011;4812;51.992;8.648;2022-11-06T12:39:57;21.77;;;19.73;;
9547;SDS011;4812;51.992;8.648;2022-11-06T12:42:30;21.33;;;19.57;;
9547;SDS011;4812;51.992;8.648;2022-11-06T12:44:58;20.07;;;18.47;;
9547;SDS011;4812;51.992;8.648;2022-11-06T12:47:29;20.93;;;19.10;;
9547;SDS011;4812;51.992;8.648;2022-11-06T12:50:11;20.23;;;18.73;;
9547;SDS011;4812;51.992;8.648;2022-11-06T12:52:53;20.63;;;18.83;;
9547;SDS011;4812;51.992;8.648;2022-11-06T12:55:33;20.77;;;19.07;;
9547;SDS011;4812;51.992;8.648;2022-11-06T12:58:08;20.33;;;18.73;;
9547;SDS011;4812;51.992;8.648;2022-11-06T13:00:49;21.23;;;19.53;;
9547;SDS011;4812;51.992;8.648;2022-11-06T13:03:39;21.40;;;19.60;;
9547;SDS011;4812;51.992;8.648;2022-11-06T13:06:19;20.67;;;18.97;;
9547;SDS011;4812;51.992;8.648;2022-11-06T13:08:53;20.83;;;19.07;;
9547;SDS011;4812;51.992;8.648;2022-11-06T13:11:27;20.80;;;18.87;;
9547;SDS011;4812;51.992;8.648;2022-11-06T13:16:45;20.70;;;19.03;;
9547;SDS011;4812;51.992;8.648;2022-11-06T13:19:22;21.93;;;20.10;;
9547;SDS011;4812;51.992;8.648;2022-11-06T13:22:06;21.43;;;19.73;;
9547;SDS011;4812;51.992;8.648;2022-11-06T13:24:39;20.90;;;19.37;;
9547;SDS011;4812;51.992;8.648;2022-11-06T13:27:14;20.70;;;19.00;;
9547;SDS011;4812;51.992;8.648;2022-11-06T13:29:48;21.10;;;19.43;;
9547;SDS011;4812;51.992;8.648;2022-11-06T13:32:18;21.73;;;19.93;;
9547;SDS011;4812;51.992;8.648;2022-11-06T13:34:49;21.57;;;19.60;;
9547;SDS011;4812;51.992;8.648;2022-11-06T13:37:23;22.07;;;20.10;;
9547;SDS011;4812;51.992;8.648;2022-11-06T13:39:57;20.10;;;18.50;;
9547;SDS011;4812;51.992;8.648;2022-11-06T13:42:32;21.47;;;19.60;;
9547;SDS011;4812;51.992;8.648;2022-11-06T13:45:02;21.53;;;19.77;;
9547;SDS011;4812;51.992;8.648;2022-11-06T13:47:32;21.43;;;19.77;;
9547;SDS011;4812;51.992;8.648;2022-11-06T13:50:05;21.17;;;19.37;;
9547;SDS011;4812;51.992;8.648;2022-11-06T13:52:37;21.77;;;19.90;;
9547;SDS011;4812;51.992;8.648;2022-11-06T13:55:10;21.53;;;19.70;;
9547;SDS011;4812;51.992;8.648;2022-11-06T13:57:57;19.97;;;18.47;;
9547;SDS011;4812;51.992;8.648;2022-11-06T14:00:34;21.00;;;19.20;;
9547;SDS011;4812;51.992;8.648;2022-11-06T14:03:15;20.97;;;19.10;;
9547;SDS011;4812;51.992;8.648;2022-11-06T14:05:51;20.03;;;18.23;;
9547;SDS011;4812;51.992;8.648;2022-11-06T14:08:22;20.50;;;18.60;;
9547;SDS011;4812;51.992;8.648;2022-11-06T14:10:53;19.97;;;18.53;;
9547;SDS011;4812;51.992;8.648;2022-11-06T14:13:28;19.80;;;18.40;;
9547;SDS011;4812;51.992;8.648;2022-11-06T14:16:01;20.47;;;18.77;;
9547;SDS011;4812;51.992;8.648;2022-11-06T14:18:35;20.70;;;19.00;;
9547;SDS011;4812;51.992;8.648;2022-11-06T14:21:24;20.30;;;18.43;;
9547;SDS011;4812;51.992;8.648;2022-11-06T14:27:08;19.67;;;18.00;;
9547;SDS011;4812;51.992;8.648;2022-11-06T14:29:42;20.67;;;18.53;;
9547;SDS011;4812;51.992;8.648;2022-11-06T14:32:34;20.10;;;18.50;;
9547;SDS011;4812;51.992;8.648;2022-11-06T14:38:18;21.40;;;19.60;;
9547;SDS011;4812;51.992;8.648;2022-11-06T14:41:00;21.67;;;19.87;;
9547;SDS011;4812;51.992;8.648;2022-11-06T14:43:31;20.77;;;19.17;;
9547;SDS011;4812;51.992;8.648;2022-11-06T14:46:02;21.33;;;19.40;;
9547;SDS011;4812;51.992;8.648;2022-11-06T14:48:32;21.17;;;19.43;;
9547;SDS011;4812;51.992;8.648;2022-11-06T14:51:01;20.87;;;19.30;;
9547;SDS011;4812;51.992;8.648;2022-11-06T14:53:30;21.00;;;19.50;;
9547;SDS011;4812;51.992;8.648;2022-11-06T14:56:00;20.80;;;19.27;;
9547;SDS011;4812;51.992;8.648;2022-11-06T14:58:29;24.67;;;22.97;;
9547;SDS011;4812;51.992;8.648;2022-11-06T15:00:58;23.70;;;22.10;;
9547;SDS011;4812;51.992;8.648;2022-11-06T15:03:30;24.23;;;22.53;;
9547;SDS011;4812;51.992;8.648;2022-11-06T15:06:01;20.90;;;19.20;;
9547;SDS011;4812;51.992;8.648;2022-11-06T15:08:50;20.73;;;19.23;;
9547;SDS011;4812;51.992;8.648;2022-11-06T15:23:09;22.33;;;20.53;;
9547;SDS011;4812;51.992;8.648;2022-11-06T15:25:45;20.70;;;19.10;;
9547;SDS011;4812;51.992;8.648;2022-11-06T15:28:17;21.10;;;19.50;;
9547;SDS011;4812;51.992;8.648;2022-11-06T15:30:48;21.53;;;19.50;;
9547;SDS011;4812;51.992;8.648;2022-11-06T15:33:18;21.50;;;19.90;;
9547;SDS011;4812;51.992;8.648;2022-11-06T15:35:51;21.03;;;19.27;;
9547;SDS011;4812;51.992;8.648;2022-11-06T15:38:22;21.57;;;19.80;;